Time;durP1;ratioP1;P1;durP2;ratioP2;P2;SDS_P1;SDS_P2;PMS_P1;PMS_P2;Temp;Humidity;BMP_temperature;BMP_pressure;BME280_temperature;BME280_humidity;BME280_pressure;Samples;Min_cycle;Max_cycle;Signal;HPM_P1;HPM_P2
2022/10/25 00:01:01;;;;;;;8.00;1.88;;;18.90;1.00;;;;;;4862744;29;20046;-58
2022/10/25 00:03:28;;;;;;;8.07;1.70;;;19.00;1.00;;;;;;4862775;29;20046;-57
2022/10/25 00:05:55;;;;;;;8.30;1.70;;;19.00;1.00;;;;;;4862786;29;20049;-54
2022/10/25 00:08:22;;;;;;;8.10;1.60;;;19.00;1.00;;;;;;4862235;29;20049;-55
2022/10/25 00:10:48;;;;;;;6.68;1.25;;;19.00;1.00;;;;;;4862330;29;20049;-54
2022/10/25 00:13:15;;;;;;;8.10;2.25;;;19.00;1.00;;;;;;4862423;29;20415;-58
2022/10/25 00:15:42;;;;;;;13.75;2.53;;;19.00;1.00;;;;;;4862288;29;20042;-58
2022/10/25 00:18:09;;;;;;;10.18;1.80;;;18.90;1.00;;;;;;4862375;29;20098;-58
2022/10/25 00:20:37;;;;;;;5.97;1.77;;;18.90;1.00;;;;;;4861850;29;20044;-56
2022/10/25 00:23:03;;;;;;;5.40;1.52;;;18.90;1.00;;;;;;4862431;29;20098;-57
2022/10/25 00:25:30;;;;;;;7.95;1.50;;;18.90;1.00;;;;;;4862262;29;20101;-56
2022/10/25 00:27:57;;;;;;;6.78;2.30;;;18.90;1.00;;;;;;4862157;29;20052;-57
2022/10/25 00:30:24;;;;;;;7.30;1.67;;;18.90;1.00;;;;;;4861921;29;20467;-56
2022/10/25 00:32:51;;;;;;;6.95;1.42;;;18.90;1.00;;;;;;4862152;29;20247;-55
2022/10/25 00:35:18;;;;;;;8.77;1.75;;;18.90;1.00;;;;;;4862191;29;20041;-58
2022/10/25 00:37:45;;;;;;;7.07;1.83;;;18.90;1.00;;;;;;4862059;29;20041;-58
2022/10/25 00:40:12;;;;;;;6.75;1.05;;;18.90;1.00;;;;;;4861564;29;20045;-54
2022/10/25 00:42:39;;;;;;;13.02;2.78;;;18.90;1.00;;;;;;4862017;29;20053;-57
2022/10/25 00:45:27;;;;;;;7.68;1.63;;;18.90;1.00;;;;;;4861876;29;20099;-58
2022/10/25 00:47:59;;;;;;;8.13;1.48;;;18.90;1.00;;;;;;4861928;29;20064;-56
2022/10/25 00:50:43;;;;;;;4.43;1.38;;;18.90;1.00;;;;;;4861525;29;20056;-56
2022/10/25 00:53:14;;;;;;;4.85;1.10;;;18.90;1.00;;;;;;4861727;29;20041;-57
2022/10/25 00:55:47;;;;;;;5.22;1.17;;;18.90;1.00;;;;;;4861779;29;20049;-58
2022/10/25 00:58:18;;;;;;;2.55;0.95;;;18.90;1.00;;;;;;4861735;29;20053;-59
2022/10/25 01:00:46;;;;;;;8.45;1.83;;;18.90;1.00;;;;;;4861276;29;20079;-56
2022/10/25 01:03:16;;;;;;;8.35;1.55;;;18.80;1.00;;;;;;4861566;29;20041;-52
2022/10/25 01:05:44;;;;;;;8.00;1.73;;;18.80;1.00;;;;;;4861675;29;20110;-57
2022/10/25 01:08:11;;;;;;;6.57;2.13;;;18.90;1.00;;;;;;4861556;29;20052;-55
2022/10/25 01:10:39;;;;;;;9.88;2.20;;;18.80;1.00;;;;;;4861081;29;20056;-57
2022/10/25 01:13:06;;;;;;;6.00;1.25;;;18.90;1.00;;;;;;4861540;29;20053;-55
2022/10/25 01:15:58;;;;;;;4.28;1.42;;;18.90;1.00;;;;;;4861182;29;20070;-54
2022/10/25 01:19:08;;;;;;;4.32;1.20;;;18.90;1.00;;;;;;4854332;29;20053;-55
2022/10/25 01:21:47;;;;;;;8.27;1.55;;;18.80;1.00;;;;;;4822784;29;20050;-54
2022/10/25 01:24:49;;;;;;;6.72;2.13;;;18.80;1.00;;;;;;4856624;29;20090;-57
2022/10/25 01:27:47;;;;;;;5.70;1.73;;;18.80;1.00;;;;;;4861238;29;20049;-58
2022/10/25 01:30:18;;;;;;;6.57;1.30;;;18.80;1.00;;;;;;4860737;29;20132;-55
2022/10/25 01:32:48;;;;;;;7.20;1.70;;;18.80;1.00;;;;;;4860995;29;20052;-57
2022/10/25 01:35:37;;;;;;;3.80;1.10;;;18.80;1.00;;;;;;4861203;29;20053;-55
2022/10/25 01:38:25;;;;;;;4.32;1.67;;;18.80;1.00;;;;;;4861178;29;20053;-56
2022/10/25 01:41:28;;;;;;;8.35;1.15;;;18.80;1.00;;;;;;4860593;29;20049;-54
2022/10/25 01:44:21;;;;;;;11.27;1.70;;;18.80;1.80;;;;;;4860872;29;20069;-56
2022/10/25 01:46:53;;;;;;;7.60;2.23;;;18.80;1.00;;;;;;4861241;29;20125;-58
2022/10/25 01:49:31;;;;;;;6.78;1.48;;;18.80;1.00;;;;;;4860489;29;20045;-59
2022/10/25 01:51:58;;;;;;;5.38;1.30;;;18.80;2.30;;;;;;4860899;29;20045;-56
2022/10/25 01:54:25;;;;;;;6.00;1.17;;;18.80;2.70;;;;;;4860818;29;20077;-57
2022/10/25 01:57:19;;;;;;;8.43;1.27;;;18.80;2.40;;;;;;4860738;29;20053;-55
2022/10/25 02:00:06;;;;;;;8.30;2.35;;;18.80;1.80;;;;;;4860643;29;20057;-58
2022/10/25 02:03:10;;;;;;;6.10;1.55;;;18.80;2.50;;;;;;4860980;29;20092;-53
2022/10/25 02:05:52;;;;;;;6.45;1.30;;;18.80;1.20;;;;;;4860810;29;20076;-55
2022/10/25 02:08:40;;;;;;;7.45;1.40;;;18.80;1.50;;;;;;4860489;29;20053;-59
2022/10/25 02:11:19;;;;;;;5.20;1.75;;;18.80;2.40;;;;;;4860760;29;20075;-57
2022/10/25 02:13:58;;;;;;;8.13;1.60;;;18.80;2.20;;;;;;4860586;29;20058;-55
2022/10/25 02:16:30;;;;;;;8.00;1.52;;;18.80;1.00;;;;;;4860715;29;20560;-57
2022/10/25 02:19:09;;;;;;;4.65;1.60;;;18.80;1.40;;;;;;4860378;29;20151;-55
2022/10/25 02:21:36;;;;;;;5.80;1.20;;;18.80;1.10;;;;;;4860616;29;20048;-58
2022/10/25 02:24:15;;;;;;;4.38;1.45;;;18.80;1.30;;;;;;4860546;29;20049;-56
2022/10/25 02:26:44;;;;;;;5.32;1.40;;;18.80;2.20;;;;;;4860547;29;20046;-58
2022/10/25 02:29:13;;;;;;;5.38;1.40;;;18.80;1.90;;;;;;4860292;29;20129;-56
2022/10/25 02:31:40;;;;;;;2.63;1.48;;;18.80;1.10;;;;;;4860316;29;20037;-57
2022/10/25 02:34:07;;;;;;;4.88;1.10;;;18.80;1.70;;;;;;4860413;29;20046;-57
2022/10/25 02:36:34;;;;;;;3.13;1.23;;;18.80;2.40;;;;;;4860710;29;20102;-57
2022/10/25 02:39:02;;;;;;;4.30;1.20;;;18.80;1.00;;;;;;4860036;29;20522;-59
2022/10/25 02:41:28;;;;;;;11.13;1.98;;;18.80;2.70;;;;;;4860240;29;20211;-59
2022/10/25 02:43:55;;;;;;;3.28;0.98;;;18.70;1.60;;;;;;4860549;29;20460;-58
2022/10/25 02:46:23;;;;;;;7.10;1.20;;;18.70;2.80;;;;;;4860261;29;20056;-56
2022/10/25 02:48:50;;;;;;;6.13;1.30;;;18.70;1.00;;;;;;4860094;29;20049;-59
2022/10/25 02:51:18;;;;;;;5.63;1.20;;;18.70;2.30;;;;;;4860343;29;20049;-54
2022/10/25 02:53:45;;;;;;;7.65;1.80;;;18.70;1.80;;;;;;4861676;29;20045;-59
2022/10/25 02:56:19;;;;;;;8.75;1.10;;;18.70;2.30;;;;;;4863795;29;20056;-54
2022/10/25 02:58:49;;;;;;;7.38;0.93;;;18.70;2.00;;;;;;4877977;29;20053;-53
2022/10/25 03:01:17;;;;;;;9.38;2.60;;;18.70;3.60;;;;;;4863472;29;20041;-55
2022/10/25 03:03:44;;;;;;;3.22;1.02;;;18.70;3.00;;;;;;4863726;29;20072;-58
2022/10/25 03:06:12;;;;;;;3.78;1.23;;;18.70;2.10;;;;;;4863658;29;20038;-59
2022/10/25 03:08:40;;;;;;;4.95;1.33;;;18.70;2.40;;;;;;4863339;29;20124;-57
2022/10/25 03:11:07;;;;;;;2.42;1.25;;;18.70;2.30;;;;;;4863450;29;20049;-55
2022/10/25 03:13:35;;;;;;;3.33;1.13;;;18.70;1.00;;;;;;4863685;29;20069;-60
2022/10/25 03:16:02;;;;;;;3.30;0.80;;;18.70;1.00;;;;;;4863578;29;20069;-58
2022/10/25 03:18:29;;;;;;;6.57;1.58;;;18.70;2.80;;;;;;4863122;29;20082;-57
2022/10/25 03:20:57;;;;;;;4.78;1.10;;;18.70;3.30;;;;;;4863238;29;20464;-57
2022/10/25 03:23:25;;;;;;;5.97;1.55;;;18.70;4.60;;;;;;4863457;29;20102;-53
2022/10/25 03:25:56;;;;;;;7.80;1.88;;;18.70;5.40;;;;;;4863341;29;20049;-54
2022/10/25 03:28:26;;;;;;;6.35;1.83;;;18.70;6.40;;;;;;4863070;29;20072;-60
2022/10/25 03:30:54;;;;;;;4.25;1.17;;;18.70;5.90;;;;;;4862885;29;20113;-56
2022/10/25 03:33:21;;;;;;;9.65;1.38;;;18.70;3.60;;;;;;4863197;29;20049;-53
2022/10/25 03:35:50;;;;;;;5.18;1.65;;;18.70;3.90;;;;;;4863197;29;20041;-56
2022/10/25 03:38:17;;;;;;;5.85;1.50;;;18.70;3.70;;;;;;4863136;29;20559;-58
2022/10/25 03:40:44;;;;;;;5.40;1.52;;;18.70;4.20;;;;;;4862895;29;20487;-53
2022/10/25 03:43:11;;;;;;;6.47;1.83;;;18.60;3.20;;;;;;4863122;29;20462;-55
2022/10/25 03:45:38;;;;;;;7.45;1.48;;;18.70;4.20;;;;;;4862874;29;20056;-56
2022/10/25 03:48:05;;;;;;;4.18;0.77;;;18.70;3.80;;;;;;4863007;29;20052;-54
2022/10/25 03:50:32;;;;;;;6.75;0.98;;;18.70;4.50;;;;;;4862486;29;20049;-56
2022/10/25 03:52:59;;;;;;;6.90;0.93;;;18.70;3.70;;;;;;4862896;29;20056;-57
2022/10/25 03:55:26;;;;;;;4.70;1.50;;;18.70;5.40;;;;;;4862709;29;20531;-58
2022/10/25 03:57:53;;;;;;;4.82;1.25;;;18.70;3.50;;;;;;4862804;29;20048;-57
2022/10/25 04:00:20;;;;;;;4.88;1.00;;;18.70;4.90;;;;;;4862294;29;20041;-53
2022/10/25 04:02:47;;;;;;;6.85;1.48;;;18.60;5.80;;;;;;4862525;29;20499;-56
2022/10/25 04:05:14;;;;;;;6.20;1.30;;;18.60;4.90;;;;;;4862393;29;20072;-53
2022/10/25 04:07:40;;;;;;;5.85;1.15;;;18.60;4.10;;;;;;4862801;29;20499;-57
2022/10/25 04:10:08;;;;;;;8.63;1.95;;;18.60;5.30;;;;;;4861445;29;20503;-55
2022/10/25 04:12:34;;;;;;;2.95;0.98;;;18.60;4.40;;;;;;4860973;29;20038;-53
2022/10/25 04:15:01;;;;;;;6.97;1.23;;;18.60;4.40;;;;;;4861392;29;20495;-53
2022/10/25 04:17:28;;;;;;;9.20;1.92;;;18.60;4.40;;;;;;4862466;29;20511;-54
2022/10/25 04:19:54;;;;;;;4.35;1.17;;;18.60;4.50;;;;;;4862180;29;20575;-55
2022/10/25 04:22:21;;;;;;;5.00;0.70;;;18.60;3.70;;;;;;4862376;29;20045;-55
2022/10/25 04:24:48;;;;;;;7.22;1.73;;;18.60;4.70;;;;;;4862430;29;20052;-55
2022/10/25 04:27:15;;;;;;;9.48;2.25;;;18.60;4.60;;;;;;4862422;29;20105;-56
2022/10/25 04:29:42;;;;;;;5.57;1.45;;;18.60;5.50;;;;;;4862005;29;20061;-55
2022/10/25 04:32:08;;;;;;;8.95;1.95;;;18.60;4.50;;;;;;4862227;29;20098;-58
2022/10/25 04:34:35;;;;;;;4.47;1.20;;;18.60;2.90;;;;;;4862052;29;20050;-57
2022/10/25 04:37:02;;;;;;;4.15;1.33;;;18.60;5.20;;;;;;4862131;29;20054;-58
2022/10/25 04:39:29;;;;;;;9.75;1.33;;;18.60;4.60;;;;;;4861825;29;20073;-57
2022/10/25 04:41:56;;;;;;;13.23;2.10;;;18.60;3.80;;;;;;4862031;29;20125;-56
2022/10/25 04:44:23;;;;;;;5.70;2.10;;;18.60;3.50;;;;;;4861820;29;20045;-56
2022/10/25 04:46:50;;;;;;;5.55;1.70;;;18.60;5.80;;;;;;4862024;29;20049;-56
2022/10/25 04:49:17;;;;;;;4.10;1.63;;;18.50;5.20;;;;;;4861702;29;20057;-55
2022/10/25 04:51:44;;;;;;;8.15;1.88;;;18.60;4.50;;;;;;4861630;29;20479;-58
2022/10/25 04:54:11;;;;;;;10.27;1.98;;;18.60;3.10;;;;;;4861185;29;20049;-57
2022/10/25 04:56:38;;;;;;;7.60;1.80;;;18.60;4.00;;;;;;4861065;29;20049;-57
2022/10/25 04:59:05;;;;;;;5.88;1.67;;;18.60;2.50;;;;;;4861365;29;20045;-59
2022/10/25 05:01:32;;;;;;;10.18;1.25;;;18.60;4.50;;;;;;4861644;29;20049;-59
2022/10/25 05:03:59;;;;;;;3.65;1.30;;;18.60;4.30;;;;;;4861660;29;20054;-59
2022/10/25 05:06:26;;;;;;;7.10;1.45;;;18.50;5.60;;;;;;4861512;29;20111;-58
2022/10/25 05:08:54;;;;;;;5.45;1.85;;;18.60;5.50;;;;;;4861275;29;20445;-59
2022/10/25 05:11:24;;;;;;;7.00;1.88;;;18.60;6.20;;;;;;4861541;29;20110;-56
2022/10/25 05:13:51;;;;;;;5.78;1.42;;;18.60;7.90;;;;;;4861477;29;20094;-58
2022/10/25 05:16:22;;;;;;;7.00;1.60;;;18.60;7.00;;;;;;4860774;29;20069;-58
2022/10/25 05:18:53;;;;;;;4.45;1.50;;;18.60;6.90;;;;;;4861243;29;20045;-59
2022/10/25 05:21:21;;;;;;;7.15;2.15;;;18.50;8.40;;;;;;4861295;29;20487;-54
2022/10/25 05:23:48;;;;;;;6.25;2.35;;;18.50;7.90;;;;;;4861186;29;20102;-58
2022/10/25 05:26:18;;;;;;;3.47;1.60;;;18.50;11.10;;;;;;4861481;29;20468;-58
2022/10/25 05:28:47;;;;;;;4.68;1.25;;;18.50;9.00;;;;;;4860946;29;20522;-57
2022/10/25 05:31:19;;;;;;;3.72;1.10;;;18.50;8.80;;;;;;4860748;29;20057;-58
2022/10/25 05:33:50;;;;;;;7.90;1.80;;;18.50;10.00;;;;;;4861067;29;20056;-58
2022/10/25 05:36:17;;;;;;;5.47;2.00;;;18.50;10.40;;;;;;4860966;29;20042;-58
2022/10/25 05:38:44;;;;;;;5.22;1.20;;;18.50;10.30;;;;;;4860706;29;20400;-59
2022/10/25 05:41:13;;;;;;;6.22;1.50;;;18.50;9.20;;;;;;4859443;29;20465;-57
2022/10/25 05:43:40;;;;;;;9.77;1.75;;;18.50;10.60;;;;;;4860845;29;20041;-59
2022/10/25 05:46:19;;;;;;;4.45;1.48;;;18.50;9.00;;;;;;4861024;29;20518;-59
2022/10/25 05:48:46;;;;;;;5.72;1.42;;;18.50;10.20;;;;;;4860558;29;20042;-57
2022/10/25 05:51:25;;;;;;;5.70;1.80;;;18.50;8.80;;;;;;4860814;29;20086;-58
2022/10/25 05:54:13;;;;;;;6.57;1.67;;;18.50;9.80;;;;;;4860861;29;20423;-56
2022/10/25 05:56:41;;;;;;;2.27;0.70;;;18.50;9.70;;;;;;4861013;29;20045;-57
2022/10/25 05:59:10;;;;;;;5.32;1.70;;;18.50;10.70;;;;;;4860490;29;20118;-59
2022/10/25 06:01:42;;;;;;;6.00;2.20;;;18.50;9.80;;;;;;4860764;29;20101;-58
2022/10/25 06:04:10;;;;;;;5.72;1.58;;;18.50;9.60;;;;;;4860458;29;20042;-58
2022/10/25 06:06:39;;;;;;;10.10;1.83;;;18.50;12.60;;;;;;4860255;29;20052;-56
2022/10/25 06:09:07;;;;;;;5.93;1.55;;;18.50;9.90;;;;;;4860202;29;20097;-58
2022/10/25 06:11:34;;;;;;;6.35;1.85;;;18.50;11.20;;;;;;4860088;29;20132;-57
2022/10/25 06:14:02;;;;;;;7.80;1.70;;;18.50;10.00;;;;;;4860451;29;20049;-55
2022/10/25 06:16:29;;;;;;;4.22;1.60;;;18.50;12.00;;;;;;4860350;29;20041;-56
2022/10/25 06:18:56;;;;;;;4.95;1.35;;;18.50;11.40;;;;;;4860287;29;20125;-57
2022/10/25 06:21:25;;;;;;;7.32;1.60;;;18.50;10.10;;;;;;4860230;29;20046;-55
2022/10/25 06:23:52;;;;;;;3.25;1.30;;;18.50;11.40;;;;;;4860543;29;20042;-57
2022/10/25 06:26:25;;;;;;;7.40;1.77;;;18.40;10.50;;;;;;4860095;29;20054;-57
2022/10/25 06:28:59;;;;;;;5.45;1.70;;;18.40;12.20;;;;;;4860325;29;20064;-58
2022/10/25 06:31:27;;;;;;;6.00;1.33;;;18.40;12.80;;;;;;4860138;29;20050;-56
2022/10/25 06:33:54;;;;;;;4.00;1.83;;;18.40;13.10;;;;;;4864145;29;20050;-58
2022/10/25 06:36:22;;;;;;;4.32;1.50;;;18.40;12.40;;;;;;4864062;29;20053;-58
2022/10/25 06:38:49;;;;;;;2.47;1.40;;;18.40;11.10;;;;;;4863700;29;20033;-58
2022/10/25 06:41:26;;;;;;;4.68;1.50;;;18.40;12.10;;;;;;4863854;29;20046;-57
2022/10/25 06:43:54;;;;;;;6.45;1.52;;;18.40;9.80;;;;;;4864150;29;20100;-56
2022/10/25 06:46:30;;;;;;;7.97;1.65;;;18.40;11.60;;;;;;4862696;29;20449;-56
2022/10/25 06:48:58;;;;;;;4.93;1.10;;;18.40;11.90;;;;;;4863680;29;20052;-56
2022/10/25 06:51:27;;;;;;;4.53;1.25;;;18.40;12.40;;;;;;4863659;29;20053;-57
2022/10/25 06:53:59;;;;;;;8.43;1.45;;;18.40;11.90;;;;;;4863776;29;20551;-57
2022/10/25 06:56:27;;;;;;;5.95;1.63;;;18.40;13.70;;;;;;4863698;29;20395;-57
2022/10/25 06:58:54;;;;;;;5.88;1.50;;;18.40;13.60;;;;;;4863415;29;20484;-51
2022/10/25 07:01:23;;;;;;;5.93;1.85;;;18.40;12.90;;;;;;4863573;29;20041;-56
2022/10/25 07:03:52;;;;;;;5.75;1.40;;;18.40;13.20;;;;;;4863407;29;20068;-55
2022/10/25 07:06:26;;;;;;;6.40;1.42;;;18.40;13.20;;;;;;4863404;29;20053;-55
2022/10/25 07:08:59;;;;;;;5.10;1.63;;;18.40;14.00;;;;;;4863432;29;20501;-55
2022/10/25 07:11:27;;;;;;;6.88;1.40;;;18.40;13.40;;;;;;4863312;29;20056;-53
2022/10/25 07:13:57;;;;;;;6.03;1.67;;;18.40;13.50;;;;;;4863391;29;20105;-55
2022/10/25 07:16:25;;;;;;;6.75;1.52;;;18.40;14.10;;;;;;4863596;29;20110;-55
2022/10/25 07:18:56;;;;;;;3.83;1.20;;;18.40;16.50;;;;;;4863083;29;20048;-57
2022/10/25 07:21:23;;;;;;;7.18;1.65;;;18.40;15.50;;;;;;4863009;29;20053;-56
2022/10/25 07:23:50;;;;;;;4.80;1.30;;;18.40;14.50;;;;;;4863268;29;20052;-55
2022/10/25 07:26:20;;;;;;;4.63;1.77;;;18.40;16.20;;;;;;4863196;29;20049;-53
2022/10/25 07:28:48;;;;;;;6.75;1.65;;;18.40;16.00;;;;;;4863035;29;20468;-56
2022/10/25 07:31:36;;;;;;;5.47;1.23;;;18.40;14.90;;;;;;4862833;29;20049;-58
2022/10/25 07:34:04;;;;;;;4.65;1.10;;;18.40;14.60;;;;;;4862951;29;20045;-56
2022/10/25 07:36:32;;;;;;;6.63;1.48;;;18.40;15.10;;;;;;4862929;29;20042;-57
2022/10/25 07:38:59;;;;;;;5.47;1.92;;;18.40;15.30;;;;;;4861616;29;20064;-54
2022/10/25 07:41:26;;;;;;;4.50;1.40;;;18.40;13.20;;;;;;4862822;29;20109;-58
2022/10/25 07:43:54;;;;;;;7.05;1.67;;;18.40;13.70;;;;;;4863084;29;20056;-54
2022/10/25 07:46:21;;;;;;;6.55;1.65;;;18.40;16.10;;;;;;4862850;29;20049;-56
2022/10/25 07:48:48;;;;;;;6.10;1.80;;;18.40;15.80;;;;;;4862715;29;20041;-56
2022/10/25 07:51:16;;;;;;;4.72;1.33;;;18.40;16.10;;;;;;4862642;29;20074;-56
2022/10/25 07:53:43;;;;;;;6.50;1.45;;;18.40;15.60;;;;;;4862714;29;20129;-56
2022/10/25 07:56:16;;;;;;;6.15;1.50;;;18.40;16.10;;;;;;4862680;29;20118;-57
2022/10/25 07:58:49;;;;;;;8.13;1.23;;;18.40;17.50;;;;;;4862462;29;20120;-53
2022/10/25 08:01:22;;;;;;;2.30;0.85;;;18.40;16.70;;;;;;4862631;29;20412;-56
2022/10/25 08:03:50;;;;;;;6.28;1.55;;;18.40;17.30;;;;;;4862674;29;20130;-56
2022/10/25 08:06:19;;;;;;;4.75;1.52;;;18.40;17.50;;;;;;4862577;29;20045;-56
2022/10/25 08:08:46;;;;;;;5.15;1.20;;;18.40;16.20;;;;;;4862317;29;20548;-57
2022/10/25 08:11:13;;;;;;;4.25;1.65;;;18.40;16.80;;;;;;4862404;29;20452;-56
2022/10/25 08:13:40;;;;;;;7.85;1.17;;;18.40;18.80;;;;;;4862461;29;20052;-56
2022/10/25 08:16:07;;;;;;;6.43;1.60;;;18.40;21.80;;;;;;4862327;29;20045;-56
2022/10/25 08:18:34;;;;;;;8.02;1.52;;;18.40;22.60;;;;;;4862140;29;20049;-57
2022/10/25 08:21:02;;;;;;;5.40;1.20;;;18.40;23.10;;;;;;4862378;29;20138;-57
2022/10/25 08:23:31;;;;;;;4.00;1.05;;;18.40;23.20;;;;;;4862408;29;20125;-57
2022/10/25 08:25:59;;;;;;;2.50;1.08;;;18.40;24.10;;;;;;4862278;29;20133;-55
2022/10/25 08:28:27;;;;;;;4.45;1.25;;;18.40;24.60;;;;;;4862074;29;20109;-58
2022/10/25 08:30:54;;;;;;;3.35;1.13;;;18.40;23.00;;;;;;4862061;29;20097;-56
2022/10/25 08:33:22;;;;;;;4.82;1.90;;;18.40;22.70;;;;;;4862081;29;20461;-57
2022/10/25 08:35:49;;;;;;;5.35;1.15;;;18.40;25.10;;;;;;4861994;29;20045;-58
2022/10/25 08:38:16;;;;;;;8.07;1.75;;;18.40;24.10;;;;;;4862047;29;20054;-58
2022/10/25 08:40:55;;;;;;;4.47;0.90;;;18.40;25.30;;;;;;4861804;29;20082;-58
2022/10/25 08:43:57;;;;;;;4.25;1.13;;;18.40;27.60;;;;;;4861957;29;20041;-58
2022/10/25 08:46:34;;;;;;;2.72;0.68;;;18.40;27.80;;;;;;4861847;29;20084;-58
2022/10/25 08:49:19;;;;;;;7.90;1.58;;;18.50;27.90;;;;;;4861830;29;20090;-58
2022/10/25 08:51:49;;;;;;;4.32;1.02;;;18.50;29.80;;;;;;4860869;29;20049;-59
2022/10/25 08:54:22;;;;;;;8.30;1.10;;;18.50;29.30;;;;;;4861817;29;20411;-58
2022/10/25 08:56:53;;;;;;;6.30;1.23;;;18.50;31.00;;;;;;4861731;29;20038;-59
2022/10/25 08:59:44;;;;;;;3.20;0.80;;;18.50;32.90;;;;;;4861478;29;20478;-58
2022/10/25 09:02:21;;;;;;;2.25;0.73;;;18.50;35.90;;;;;;4861665;29;20129;-59
2022/10/25 09:04:48;;;;;;;4.45;1.02;;;18.50;36.20;;;;;;4861628;29;20106;-57
2022/10/25 09:07:52;;;;;;;7.28;1.05;;;18.50;34.10;;;;;;4861570;29;20045;-57
2022/10/25 09:10:41;;;;;;;3.65;0.80;;;18.50;35.90;;;;;;4861190;29;20054;-59
2022/10/25 09:13:21;;;;;;;5.25;0.70;;;18.60;38.90;;;;;;4861725;29;20567;-58
2022/10/25 09:16:20;;;;;;;3.13;0.90;;;18.60;37.50;;;;;;4861288;29;20060;-57
2022/10/25 09:18:48;;;;;;;3.72;0.70;;;18.60;37.60;;;;;;4853697;29;20064;-57
2022/10/25 09:21:19;;;;;;;3.53;1.40;;;18.60;38.00;;;;;;4861074;29;20038;-57
2022/10/25 09:24:07;;;;;;;1.50;0.60;;;18.60;39.30;;;;;;4861281;29;20061;-56
2022/10/25 09:26:42;;;;;;;3.35;0.90;;;18.70;40.40;;;;;;4860926;29;20575;-58
2022/10/25 09:29:23;;;;;;;2.15;0.70;;;18.70;40.50;;;;;;4861066;29;20049;-54
2022/10/25 09:31:55;;;;;;;7.32;1.17;;;18.70;39.80;;;;;;4860869;29;20048;-56
2022/10/25 09:34:23;;;;;;;6.95;0.95;;;18.70;36.80;;;;;;4861140;29;20052;-59
2022/10/25 09:37:01;;;;;;;3.03;0.75;;;18.80;40.00;;;;;;4861173;29;20045;-57
2022/10/25 09:39:41;;;;;;;5.57;1.80;;;18.80;37.40;;;;;;4860608;29;20120;-55
2022/10/25 09:42:32;;;;;;;1.70;0.70;;;18.80;40.70;;;;;;4860955;29;20133;-58
2022/10/25 09:45:32;;;;;;;2.97;1.02;;;18.80;39.10;;;;;;4860789;29;20049;-57
2022/10/25 09:48:06;;;;;;;;;;;18.80;39.10;;;;;;4861349;29;20049;-57
2022/10/25 09:50:57;;;;;;;5.13;1.38;;;18.80;38.00;;;;;;4860472;29;20010;-59
2022/10/25 09:53:24;;;;;;;3.05;1.00;;;18.80;38.70;;;;;;4860742;29;20166;-58
2022/10/25 09:55:57;;;;;;;4.38;0.90;;;18.80;38.70;;;;;;4860751;29;20117;-57
2022/10/25 09:58:29;;;;;;;6.22;1.48;;;18.80;39.80;;;;;;4860424;29;20109;-58
2022/10/25 10:00:59;;;;;;;6.10;1.20;;;18.80;38.70;;;;;;4859453;29;20128;-57
2022/10/25 10:03:35;;;;;;;6.57;0.70;;;18.80;37.90;;;;;;4860349;29;20128;-58
2022/10/25 10:06:27;;;;;;;5.95;0.82;;;18.90;39.50;;;;;;4860623;29;20052;-56
2022/10/25 10:09:02;;;;;;;5.13;1.08;;;18.90;37.10;;;;;;4860369;29;20453;-56
2022/10/25 10:11:31;;;;;;;3.22;1.10;;;18.90;36.70;;;;;;4860523;29;20057;-53
2022/10/25 10:14:21;;;;;;;1.92;1.02;;;18.90;36.80;;;;;;4860472;29;20071;-55
2022/10/25 10:16:52;;;;;;;2.72;0.60;;;18.90;39.40;;;;;;4860390;29;20060;-57
2022/10/25 10:19:20;;;;;;;5.50;0.90;;;18.90;38.70;;;;;;4860422;29;20049;-56
2022/10/25 10:22:05;;;;;;;5.38;1.25;;;18.90;36.80;;;;;;4860291;29;20042;-56
2022/10/25 10:24:35;;;;;;;4.03;0.90;;;19.00;38.50;;;;;;4860624;29;20046;-56
2022/10/25 10:27:09;;;;;;;5.88;0.95;;;19.00;36.20;;;;;;4859061;29;20045;-56
2022/10/25 10:29:47;;;;;;;2.85;0.70;;;19.00;36.20;;;;;;4860028;29;20053;-56
2022/10/25 10:32:32;;;;;;;3.40;0.93;;;19.00;36.00;;;;;;4860345;29;20057;-56
2022/10/25 10:35:01;;;;;;;6.32;1.42;;;19.00;35.90;;;;;;4860607;29;20053;-57
2022/10/25 10:37:29;;;;;;;2.88;0.80;;;19.00;36.90;;;;;;4860342;29;20053;-57
2022/10/25 10:39:59;;;;;;;5.72;0.73;;;19.00;35.90;;;;;;4859909;29;20045;-56
2022/10/25 10:42:31;;;;;;;2.45;0.85;;;19.00;34.00;;;;;;4860637;29;20559;-57
2022/10/25 10:45:18;;;;;;;5.78;1.40;;;19.00;35.10;;;;;;4860370;29;20050;-56
2022/10/25 10:47:48;;;;;;;6.95;1.40;;;19.10;35.50;;;;;;4860297;29;20045;-56
2022/10/25 10:50:24;;;;;;;4.72;0.60;;;19.10;36.80;;;;;;4859812;29;20504;-57
2022/10/25 10:53:19;;;;;;;6.10;1.17;;;19.10;36.70;;;;;;4860090;29;20464;-58
2022/10/25 10:55:52;;;;;;;6.68;1.23;;;19.10;32.60;;;;;;4860256;29;20041;-56
2022/10/25 10:58:34;;;;;;;5.72;1.05;;;19.00;33.70;;;;;;4859998;29;20080;-57
2022/10/25 11:01:05;;;;;;;3.80;0.68;;;19.10;34.50;;;;;;4860147;29;20570;-56
2022/10/25 11:03:41;;;;;;;8.05;1.50;;;19.00;33.90;;;;;;4860370;29;20041;-56
2022/10/25 11:06:32;;;;;;;5.43;0.75;;;19.10;32.70;;;;;;4860148;29;20140;-56
2022/10/25 11:09:11;;;;;;;2.45;0.60;;;19.10;33.50;;;;;;4859899;29;20155;-55
2022/10/25 11:11:39;;;;;;;4.78;1.17;;;19.10;33.30;;;;;;4860156;29;20073;-56
2022/10/25 11:14:11;;;;;;;4.05;0.73;;;19.10;33.30;;;;;;4860456;29;20110;-55
2022/10/25 11:16:54;;;;;;;3.40;0.88;;;19.10;31.60;;;;;;4863570;29;20046;-55
2022/10/25 11:19:29;;;;;;;2.42;0.85;;;19.10;34.30;;;;;;4863118;29;20045;-54
2022/10/25 11:22:14;;;;;;;5.03;1.17;;;19.10;33.70;;;;;;4863383;29;20088;-58
2022/10/25 11:25:24;;;;;;;4.15;1.00;;;19.10;35.60;;;;;;4863370;29;20046;-56
2022/10/25 11:28:04;;;;;;;5.13;0.70;;;19.10;30.70;;;;;;4858555;29;20061;-55
2022/10/25 11:30:35;;;;;;;4.57;1.13;;;19.10;32.40;;;;;;4861784;29;20500;-55
2022/10/25 11:33:27;;;;;;;4.78;0.80;;;19.10;32.50;;;;;;4863257;29;20101;-57
2022/10/25 11:36:18;;;;;;;3.10;0.52;;;19.10;31.10;;;;;;4863210;29;20056;-56
2022/10/25 11:39:27;;;;;;;4.32;1.05;;;19.10;31.20;;;;;;4862749;29;20054;-56
2022/10/25 11:42:16;;;;;;;1.83;0.60;;;19.10;31.20;;;;;;4843049;29;20145;-58
2022/10/25 11:45:27;;;;;;;1.85;0.45;;;19.10;32.00;;;;;;4863057;29;20046;-56
2022/10/25 11:48:08;;;;;;;3.63;1.00;;;19.10;33.50;;;;;;4862919;29;20120;-56
2022/10/25 11:51:07;;;;;;;2.58;0.47;;;19.10;30.00;;;;;;4862542;29;20045;-54
2022/10/25 11:54:08;;;;;;;3.58;0.77;;;19.10;29.70;;;;;;4862915;29;20045;-56
2022/10/25 11:56:54;;;;;;;2.22;0.50;;;19.10;30.90;;;;;;4862386;29;20062;-59
2022/10/25 11:59:32;;;;;;;4.05;0.77;;;19.10;29.90;;;;;;4862577;29;20065;-57
2022/10/25 12:02:24;;;;;;;4.25;0.60;;;19.10;33.80;;;;;;4862766;29;20078;-56
2022/10/25 12:05:09;;;;;;;4.03;0.77;;;19.10;32.70;;;;;;4862577;29;20045;-59
2022/10/25 12:07:51;;;;;;;3.03;1.55;;;19.10;31.20;;;;;;4862671;29;20056;-56
2022/10/25 12:10:24;;;;;;;4.38;0.68;;;19.10;35.20;;;;;;4862270;29;20499;-57
2022/10/25 12:13:01;;;;;;;2.53;1.23;;;19.10;31.70;;;;;;4862642;29;20403;-54
2022/10/25 12:15:45;;;;;;;3.45;1.30;;;19.10;35.20;;;;;;4862401;29;20136;-53
2022/10/25 12:18:23;;;;;;;5.55;1.15;;;19.00;30.80;;;;;;4862395;29;20144;-56
2022/10/25 12:20:53;;;;;;;3.78;0.90;;;19.10;34.00;;;;;;4862334;29;20097;-55
2022/10/25 12:23:24;;;;;;;7.78;1.20;;;19.10;33.30;;;;;;4862353;29;20093;-56
2022/10/25 12:26:00;;;;;;;3.17;0.90;;;19.10;30.60;;;;;;4860981;29;20448;-57
2022/10/25 12:28:48;;;;;;;4.43;0.93;;;19.10;31.70;;;;;;4862071;29;20496;-56
2022/10/25 12:31:21;;;;;;;4.68;0.85;;;19.10;31.80;;;;;;4862036;29;20046;-58
2022/10/25 12:34:11;;;;;;;4.90;1.35;;;19.10;35.90;;;;;;4860866;29;20046;-55
2022/10/25 12:36:48;;;;;;;3.85;0.63;;;19.00;35.10;;;;;;4862067;29;20045;-58
2022/10/25 12:39:47;;;;;;;11.52;1.45;;;19.10;33.40;;;;;;4861834;29;20061;-58
2022/10/25 12:42:31;;;;;;;4.10;0.85;;;19.10;30.90;;;;;;4861648;29;20454;-59
2022/10/25 12:45:10;;;;;;;4.57;0.98;;;19.10;33.90;;;;;;4861829;29;20045;-58
2022/10/25 12:48:14;;;;;;;2.97;1.05;;;19.10;31.60;;;;;;4861863;29;20415;-55
2022/10/25 12:50:47;;;;;;;1.75;0.77;;;19.00;32.80;;;;;;4861527;29;20101;-58
2022/10/25 12:53:30;;;;;;;7.00;0.93;;;19.10;30.80;;;;;;4861878;29;20120;-57
2022/10/25 12:56:27;;;;;;;2.88;0.77;;;19.10;32.80;;;;;;4860654;29;20132;-54
2022/10/25 12:59:23;;;;;;;2.33;0.60;;;19.00;31.90;;;;;;4861446;29;20045;-58
2022/10/25 13:02:17;;;;;;;4.82;1.02;;;19.10;32.30;;;;;;4861755;29;20536;-58
2022/10/25 13:04:46;;;;;;;3.95;0.85;;;19.10;34.00;;;;;;4861481;29;20094;-58
2022/10/25 13:07:15;;;;;;;3.88;0.68;;;19.10;29.90;;;;;;4861422;29;20045;-59
2022/10/25 13:09:42;;;;;;;2.67;1.13;;;19.10;30.00;;;;;;4861230;29;20050;-54
2022/10/25 13:12:15;;;;;;;7.70;1.15;;;19.10;29.80;;;;;;4861585;29;20401;-57
2022/10/25 13:14:51;;;;;;;5.03;0.95;;;19.10;29.40;;;;;;4861626;29;20060;-56
2022/10/25 13:17:18;;;;;;;2.58;0.50;;;19.10;31.20;;;;;;4861416;29;20046;-56
2022/10/25 13:19:47;;;;;;;4.82;0.70;;;19.10;34.10;;;;;;4861138;29;20049;-56
2022/10/25 13:22:34;;;;;;;2.03;0.88;;;19.10;33.00;;;;;;4861281;29;20108;-56
2022/10/25 13:25:12;;;;;;;4.18;0.85;;;19.10;32.80;;;;;;4861267;29;20517;-58